sensor_id;sensor_type;location;lat;lon;timestamp;P1;durP1;ratioP1;P2;durP2;ratioP2
64795;SDS011;51229;51.980;6.722;2023-04-02T00:00:30;5.13;;;3.28;;
64795;SDS011;51229;51.980;6.722;2023-04-02T00:03:01;6.45;;;3.65;;
64795;SDS011;51229;51.980;6.722;2023-04-02T00:05:44;5.57;;;3.47;;
64795;SDS011;51229;51.980;6.722;2023-04-02T00:08:23;4.95;;;3.17;;
64795;SDS011;51229;51.980;6.722;2023-04-02T00:10:53;5.65;;;3.50;;
64795;SDS011;51229;51.980;6.722;2023-04-02T00:13:27;5.38;;;3.50;;
64795;SDS011;51229;51.980;6.722;2023-04-02T00:16:05;5.57;;;3.97;;
64795;SDS011;51229;51.980;6.722;2023-04-02T00:18:36;5.65;;;3.25;;
64795;SDS011;51229;51.980;6.722;2023-04-02T00:21:11;5.93;;;3.22;;
64795;SDS011;51229;51.980;6.722;2023-04-02T00:23:49;5.65;;;3.58;;
64795;SDS011;51229;51.980;6.722;2023-04-02T00:26:31;5.18;;;3.58;;
64795;SDS011;51229;51.980;6.722;2023-04-02T00:28:59;6.50;;;3.83;;
64795;SDS011;51229;51.980;6.722;2023-04-02T00:31:26;5.53;;;3.58;;
64795;SDS011;51229;51.980;6.722;2023-04-02T00:33:52;5.55;;;3.20;;
64795;SDS011;51229;51.980;6.722;2023-04-02T00:36:18;5.13;;;3.63;;
64795;SDS011;51229;51.980;6.722;2023-04-02T00:38:46;5.05;;;2.92;;
64795;SDS011;51229;51.980;6.722;2023-04-02T00:41:13;6.70;;;3.80;;
64795;SDS011;51229;51.980;6.722;2023-04-02T00:43:43;5.70;;;3.88;;
64795;SDS011;51229;51.980;6.722;2023-04-02T00:46:13;6.90;;;2.67;;
64795;SDS011;51229;51.980;6.722;2023-04-02T00:48:48;5.90;;;4.00;;
64795;SDS011;51229;51.980;6.722;2023-04-02T00:51:21;6.65;;;4.78;;
64795;SDS011;51229;51.980;6.722;2023-04-02T00:53:56;7.40;;;4.00;;
64795;SDS011;51229;51.980;6.722;2023-04-02T00:56:28;6.30;;;3.67;;
64795;SDS011;51229;51.980;6.722;2023-04-02T00:58:57;7.45;;;4.20;;
64795;SDS011;51229;51.980;6.722;2023-04-02T01:01:24;6.55;;;3.92;;
64795;SDS011;51229;51.980;6.722;2023-04-02T01:03:53;8.15;;;4.45;;
64795;SDS011;51229;51.980;6.722;2023-04-02T01:06:31;7.93;;;4.60;;
64795;SDS011;51229;51.980;6.722;2023-04-02T01:25:25;7.45;;;3.88;;
64795;SDS011;51229;51.980;6.722;2023-04-02T01:28:02;12.00;;;5.88;;
64795;SDS011;51229;51.980;6.722;2023-04-02T01:30:37;7.63;;;4.55;;
64795;SDS011;51229;51.980;6.722;2023-04-02T01:33:04;8.95;;;5.40;;
64795;SDS011;51229;51.980;6.722;2023-04-02T01:35:32;8.70;;;5.10;;
64795;SDS011;51229;51.980;6.722;2023-04-02T01:38:12;7.53;;;4.72;;
64795;SDS011;51229;51.980;6.722;2023-04-02T01:40:52;8.07;;;4.55;;
64795;SDS011;51229;51.980;6.722;2023-04-02T01:46:23;8.35;;;4.75;;
64795;SDS011;51229;51.980;6.722;2023-04-02T01:48:54;8.68;;;6.10;;
64795;SDS011;51229;51.980;6.722;2023-04-02T01:51:54;9.77;;;5.97;;
64795;SDS011;51229;51.980;6.722;2023-04-02T01:54:19;9.52;;;6.43;;
64795;SDS011;51229;51.980;6.722;2023-04-02T01:56:46;9.27;;;5.07;;
64795;SDS011;51229;51.980;6.722;2023-04-02T01:59:14;8.73;;;4.68;;
64795;SDS011;51229;51.980;6.722;2023-04-02T02:01:46;10.85;;;6.07;;
64795;SDS011;51229;51.980;6.722;2023-04-02T02:04:36;8.27;;;5.15;;
64795;SDS011;51229;51.980;6.722;2023-04-02T02:07:04;8.82;;;5.75;;
64795;SDS011;51229;51.980;6.722;2023-04-02T02:09:39;7.40;;;5.25;;
64795;SDS011;51229;51.980;6.722;2023-04-02T02:12:06;8.07;;;4.70;;
64795;SDS011;51229;51.980;6.722;2023-04-02T02:14:37;7.00;;;5.07;;
64795;SDS011;51229;51.980;6.722;2023-04-02T02:17:13;7.13;;;4.30;;
64795;SDS011;51229;51.980;6.722;2023-04-02T02:19:45;7.40;;;4.60;;
64795;SDS011;51229;51.980;6.722;2023-04-02T02:24:52;7.70;;;4.82;;
64795;SDS011;51229;51.980;6.722;2023-04-02T02:35:57;7.43;;;4.97;;
64795;SDS011;51229;51.980;6.722;2023-04-02T02:38:42;10.43;;;4.85;;
64795;SDS011;51229;51.980;6.722;2023-04-02T02:44:03;8.05;;;4.93;;
64795;SDS011;51229;51.980;6.722;2023-04-02T02:46:32;9.40;;;5.47;;
64795;SDS011;51229;51.980;6.722;2023-04-02T02:49:01;7.47;;;4.40;;
64795;SDS011;51229;51.980;6.722;2023-04-02T02:51:41;6.85;;;4.15;;
64795;SDS011;51229;51.980;6.722;2023-04-02T02:54:16;8.52;;;4.97;;
64795;SDS011;51229;51.980;6.722;2023-04-02T02:56:48;9.00;;;4.88;;
64795;SDS011;51229;51.980;6.722;2023-04-02T02:59:21;6.47;;;4.05;;
64795;SDS011;51229;51.980;6.722;2023-04-02T03:01:47;8.45;;;4.78;;
64795;SDS011;51229;51.980;6.722;2023-04-02T03:04:17;10.57;;;5.65;;
64795;SDS011;51229;51.980;6.722;2023-04-02T03:06:48;8.68;;;5.03;;
64795;SDS011;51229;51.980;6.722;2023-04-02T03:09:21;9.63;;;6.20;;
64795;SDS011;51229;51.980;6.722;2023-04-02T03:12:03;10.13;;;5.95;;
64795;SDS011;51229;51.980;6.722;2023-04-02T03:14:56;10.57;;;6.40;;
64795;SDS011;51229;51.980;6.722;2023-04-02T03:17:31;7.63;;;4.05;;
64795;SDS011;51229;51.980;6.722;2023-04-02T03:20:05;10.73;;;4.93;;
64795;SDS011;51229;51.980;6.722;2023-04-02T03:28:24;6.82;;;3.88;;
64795;SDS011;51229;51.980;6.722;2023-04-02T03:30:55;6.80;;;4.07;;
64795;SDS011;51229;51.980;6.722;2023-04-02T03:33:38;10.20;;;4.70;;
64795;SDS011;51229;51.980;6.722;2023-04-02T03:38:48;8.68;;;4.00;;
64795;SDS011;51229;51.980;6.722;2023-04-02T03:41:20;8.95;;;4.03;;
64795;SDS011;51229;51.980;6.722;2023-04-02T03:43:52;8.17;;;4.60;;
64795;SDS011;51229;51.980;6.722;2023-04-02T03:46:30;7.50;;;4.47;;
64795;SDS011;51229;51.980;6.722;2023-04-02T03:49:08;8.45;;;4.03;;
64795;SDS011;51229;51.980;6.722;2023-04-02T03:51:46;7.10;;;4.60;;
64795;SDS011;51229;51.980;6.722;2023-04-02T03:54:24;7.50;;;4.25;;
64795;SDS011;51229;51.980;6.722;2023-04-02T03:56:50;7.85;;;4.28;;
64795;SDS011;51229;51.980;6.722;2023-04-02T04:01:58;8.65;;;4.22;;
64795;SDS011;51229;51.980;6.722;2023-04-02T04:04:29;10.65;;;4.72;;
64795;SDS011;51229;51.980;6.722;2023-04-02T04:06:56;7.35;;;3.80;;
64795;SDS011;51229;51.980;6.722;2023-04-02T04:09:25;6.60;;;3.83;;
64795;SDS011;51229;51.980;6.722;2023-04-02T04:12:11;8.27;;;4.35;;
64795;SDS011;51229;51.980;6.722;2023-04-02T04:14:48;8.20;;;3.92;;
64795;SDS011;51229;51.980;6.722;2023-04-02T04:17:33;7.57;;;5.18;;
64795;SDS011;51229;51.980;6.722;2023-04-02T04:20:30;9.38;;;4.85;;
64795;SDS011;51229;51.980;6.722;2023-04-02T04:23:09;6.90;;;3.03;;
64795;SDS011;51229;51.980;6.722;2023-04-02T04:25:41;8.90;;;3.95;;
64795;SDS011;51229;51.980;6.722;2023-04-02T04:28:28;10.32;;;4.53;;
64795;SDS011;51229;51.980;6.722;2023-04-02T04:31:15;10.13;;;4.70;;
64795;SDS011;51229;51.980;6.722;2023-04-02T04:33:48;6.80;;;3.50;;
64795;SDS011;51229;51.980;6.722;2023-04-02T04:36:24;7.40;;;3.83;;
64795;SDS011;51229;51.980;6.722;2023-04-02T04:38:58;7.60;;;4.07;;
64795;SDS011;51229;51.980;6.722;2023-04-02T04:41:32;9.30;;;3.72;;
64795;SDS011;51229;51.980;6.722;2023-04-02T04:44:21;7.85;;;3.70;;
64795;SDS011;51229;51.980;6.722;2023-04-02T04:49:30;9.48;;;4.75;;
64795;SDS011;51229;51.980;6.722;2023-04-02T04:53:01;7.68;;;4.03;;
64795;SDS011;51229;51.980;6.722;2023-04-02T04:55:02;7.10;;;3.63;;
64795;SDS011;51229;51.980;6.722;2023-04-02T04:57:43;8.77;;;3.33;;
64795;SDS011;51229;51.980;6.722;2023-04-02T05:00:14;7.55;;;3.15;;
64795;SDS011;51229;51.980;6.722;2023-04-02T05:05:47;6.03;;;3.00;;
64795;SDS011;51229;51.980;6.722;2023-04-02T05:08:16;6.57;;;3.15;;
64795;SDS011;51229;51.980;6.722;2023-04-02T05:10:48;7.03;;;3.00;;
64795;SDS011;51229;51.980;6.722;2023-04-02T05:18:40;7.07;;;3.20;;
64795;SDS011;51229;51.980;6.722;2023-04-02T05:21:16;6.65;;;2.78;;
64795;SDS011;51229;51.980;6.722;2023-04-02T05:23:50;7.95;;;3.00;;
64795;SDS011;51229;51.980;6.722;2023-04-02T05:26:44;8.63;;;3.03;;
64795;SDS011;51229;51.980;6.722;2023-04-02T05:29:16;4.22;;;2.08;;
64795;SDS011;51229;51.980;6.722;2023-04-02T05:31:54;5.68;;;2.58;;
64795;SDS011;51229;51.980;6.722;2023-04-02T05:34:28;5.60;;;2.65;;
64795;SDS011;51229;51.980;6.722;2023-04-02T05:36:56;6.38;;;3.00;;
64795;SDS011;51229;51.980;6.722;2023-04-02T05:39:23;5.78;;;2.70;;
64795;SDS011;51229;51.980;6.722;2023-04-02T05:41:59;9.20;;;3.20;;
64795;SDS011;51229;51.980;6.722;2023-04-02T05:47:44;6.85;;;2.17;;
64795;SDS011;51229;51.980;6.722;2023-04-02T05:50:23;4.45;;;2.03;;
64795;SDS011;51229;51.980;6.722;2023-04-02T05:53:07;5.82;;;2.10;;
64795;SDS011;51229;51.980;6.722;2023-04-02T05:55:40;6.70;;;2.40;;
64795;SDS011;51229;51.980;6.722;2023-04-02T05:58:16;6.20;;;2.30;;
64795;SDS011;51229;51.980;6.722;2023-04-02T06:00:50;6.47;;;2.80;;
64795;SDS011;51229;51.980;6.722;2023-04-02T06:03:45;5.25;;;2.42;;
64795;SDS011;51229;51.980;6.722;2023-04-02T06:06:30;6.05;;;2.35;;
64795;SDS011;51229;51.980;6.722;2023-04-02T06:09:20;4.18;;;2.05;;
64795;SDS011;51229;51.980;6.722;2023-04-02T06:12:03;9.90;;;2.80;;
64795;SDS011;51229;51.980;6.722;2023-04-02T06:14:52;6.45;;;2.38;;
64795;SDS011;51229;51.980;6.722;2023-04-02T06:17:19;7.22;;;2.50;;
64795;SDS011;51229;51.980;6.722;2023-04-02T06:19:46;4.32;;;2.17;;
64795;SDS011;51229;51.980;6.722;2023-04-02T06:25:05;5.75;;;1.70;;
64795;SDS011;51229;51.980;6.722;2023-04-02T06:27:40;4.18;;;1.77;;
64795;SDS011;51229;51.980;6.722;2023-04-02T06:30:18;6.85;;;1.85;;
64795;SDS011;51229;51.980;6.722;2023-04-02T06:32:50;7.35;;;2.22;;
64795;SDS011;51229;51.980;6.722;2023-04-02T06:35:17;4.45;;;2.28;;
64795;SDS011;51229;51.980;6.722;2023-04-02T06:37:52;4.68;;;2.22;;
64795;SDS011;51229;51.980;6.722;2023-04-02T06:43:10;9.27;;;1.88;;
64795;SDS011;51229;51.980;6.722;2023-04-02T06:46:05;7.28;;;2.42;;
64795;SDS011;51229;51.980;6.722;2023-04-02T06:48:55;6.63;;;2.28;;
64795;SDS011;51229;51.980;6.722;2023-04-02T06:51:54;4.82;;;1.77;;
64795;SDS011;51229;51.980;6.722;2023-04-02T06:54:24;6.53;;;1.83;;
64795;SDS011;51229;51.980;6.722;2023-04-02T06:56:54;5.72;;;2.10;;
64795;SDS011;51229;51.980;6.722;2023-04-02T06:59:27;5.65;;;2.00;;
64795;SDS011;51229;51.980;6.722;2023-04-02T07:01:56;3.78;;;1.25;;
64795;SDS011;51229;51.980;6.722;2023-04-02T07:04:28;6.95;;;2.55;;
64795;SDS011;51229;51.980;6.722;2023-04-02T07:06:54;5.60;;;2.20;;
64795;SDS011;51229;51.980;6.722;2023-04-02T07:09:23;6.18;;;2.10;;
64795;SDS011;51229;51.980;6.722;2023-04-02T07:11:53;4.63;;;1.35;;
64795;SDS011;51229;51.980;6.722;2023-04-02T07:14:19;4.88;;;1.95;;
64795;SDS011;51229;51.980;6.722;2023-04-02T07:16:45;3.95;;;1.95;;
64795;SDS011;51229;51.980;6.722;2023-04-02T07:19:15;3.90;;;1.70;;
64795;SDS011;51229;51.980;6.722;2023-04-02T07:21:43;4.03;;;1.95;;
64795;SDS011;51229;51.980;6.722;2023-04-02T07:24:09;3.47;;;1.60;;
64795;SDS011;51229;51.980;6.722;2023-04-02T07:26:35;4.50;;;1.63;;
64795;SDS011;51229;51.980;6.722;2023-04-02T07:29:01;4.10;;;1.63;;
64795;SDS011;51229;51.980;6.722;2023-04-02T07:31:27;6.45;;;2.10;;
64795;SDS011;51229;51.980;6.722;2023-04-02T07:33:55;7.10;;;2.17;;
64795;SDS011;51229;51.980;6.722;2023-04-02T07:36:24;5.43;;;2.25;;
64795;SDS011;51229;51.980;6.722;2023-04-02T07:38:50;7.28;;;1.98;;
64795;SDS011;51229;51.980;6.722;2023-04-02T07:41:16;4.10;;;1.80;;
64795;SDS011;51229;51.980;6.722;2023-04-02T07:43:43;7.45;;;2.30;;
64795;SDS011;51229;51.980;6.722;2023-04-02T07:46:10;4.25;;;1.75;;
64795;SDS011;51229;51.980;6.722;2023-04-02T07:48:38;3.40;;;1.60;;
64795;SDS011;51229;51.980;6.722;2023-04-02T07:51:04;6.57;;;2.03;;
64795;SDS011;51229;51.980;6.722;2023-04-02T07:53:44;6.45;;;1.90;;
64795;SDS011;51229;51.980;6.722;2023-04-02T07:56:14;6.32;;;1.98;;
64795;SDS011;51229;51.980;6.722;2023-04-02T07:58:42;5.93;;;1.90;;
64795;SDS011;51229;51.980;6.722;2023-04-02T08:01:13;3.92;;;1.52;;
64795;SDS011;51229;51.980;6.722;2023-04-02T08:03:41;6.43;;;2.22;;
64795;SDS011;51229;51.980;6.722;2023-04-02T08:06:07;5.20;;;1.88;;
64795;SDS011;51229;51.980;6.722;2023-04-02T08:08:32;5.38;;;2.08;;
64795;SDS011;51229;51.980;6.722;2023-04-02T08:10:58;6.15;;;2.53;;
64795;SDS011;51229;51.980;6.722;2023-04-02T08:13:24;5.20;;;2.05;;
64795;SDS011;51229;51.980;6.722;2023-04-02T08:15:49;6.20;;;1.73;;
64795;SDS011;51229;51.980;6.722;2023-04-02T08:18:16;7.53;;;2.25;;
64795;SDS011;51229;51.980;6.722;2023-04-02T08:20:41;3.63;;;1.83;;
64795;SDS011;51229;51.980;6.722;2023-04-02T08:23:13;6.10;;;1.50;;
64795;SDS011;51229;51.980;6.722;2023-04-02T08:25:41;4.40;;;1.90;;
64795;SDS011;51229;51.980;6.722;2023-04-02T08:28:06;5.30;;;2.20;;
64795;SDS011;51229;51.980;6.722;2023-04-02T08:30:33;5.10;;;1.90;;
64795;SDS011;51229;51.980;6.722;2023-04-02T08:32:59;5.80;;;1.80;;
64795;SDS011;51229;51.980;6.722;2023-04-02T08:35:24;3.25;;;1.70;;
64795;SDS011;51229;51.980;6.722;2023-04-02T08:37:50;4.00;;;1.88;;
64795;SDS011;51229;51.980;6.722;2023-04-02T08:40:30;5.93;;;2.03;;
64795;SDS011;51229;51.980;6.722;2023-04-02T08:48:52;2.95;;;1.50;;
64795;SDS011;51229;51.980;6.722;2023-04-02T08:51:23;4.15;;;2.00;;
64795;SDS011;51229;51.980;6.722;2023-04-02T08:53:51;5.15;;;1.95;;
64795;SDS011;51229;51.980;6.722;2023-04-02T08:56:22;9.48;;;2.35;;
64795;SDS011;51229;51.980;6.722;2023-04-02T08:59:08;5.00;;;1.80;;
64795;SDS011;51229;51.980;6.722;2023-04-02T09:04:36;4.05;;;1.90;;
64795;SDS011;51229;51.980;6.722;2023-04-02T09:07:02;5.30;;;1.60;;
64795;SDS011;51229;51.980;6.722;2023-04-02T09:09:28;5.68;;;2.55;;
64795;SDS011;51229;51.980;6.722;2023-04-02T09:12:01;2.88;;;1.60;;
64795;SDS011;51229;51.980;6.722;2023-04-02T09:14:35;4.03;;;1.63;;
64795;SDS011;51229;51.980;6.722;2023-04-02T09:17:04;4.47;;;2.10;;
64795;SDS011;51229;51.980;6.722;2023-04-02T09:22:26;4.35;;;1.70;;
64795;SDS011;51229;51.980;6.722;2023-04-02T09:24:55;4.32;;;2.10;;
64795;SDS011;51229;51.980;6.722;2023-04-02T09:27:26;4.60;;;1.67;;
64795;SDS011;51229;51.980;6.722;2023-04-02T09:29:57;3.55;;;1.80;;
64795;SDS011;51229;51.980;6.722;2023-04-02T09:35:23;4.18;;;2.17;;
64795;SDS011;51229;51.980;6.722;2023-04-02T09:40:32;6.38;;;1.77;;
64795;SDS011;51229;51.980;6.722;2023-04-02T09:43:25;6.47;;;3.90;;
64795;SDS011;51229;51.980;6.722;2023-04-02T09:45:54;5.65;;;2.05;;
64795;SDS011;51229;51.980;6.722;2023-04-02T09:48:27;4.25;;;1.80;;
64795;SDS011;51229;51.980;6.722;2023-04-02T09:51:10;3.35;;;1.83;;
64795;SDS011;51229;51.980;6.722;2023-04-02T09:56:15;4.95;;;2.25;;
64795;SDS011;51229;51.980;6.722;2023-04-02T09:59:00;4.15;;;1.80;;
64795;SDS011;51229;51.980;6.722;2023-04-02T10:01:33;3.90;;;1.65;;
64795;SDS011;51229;51.980;6.722;2023-04-02T10:04:01;4.20;;;1.80;;
64795;SDS011;51229;51.980;6.722;2023-04-02T10:06:28;5.13;;;1.50;;
64795;SDS011;51229;51.980;6.722;2023-04-02T10:08:56;4.75;;;1.70;;
64795;SDS011;51229;51.980;6.722;2023-04-02T10:11:26;6.78;;;1.73;;
64795;SDS011;51229;51.980;6.722;2023-04-02T10:19:21;4.68;;;2.17;;
64795;SDS011;51229;51.980;6.722;2023-04-02T10:21:55;5.28;;;2.03;;
64795;SDS011;51229;51.980;6.722;2023-04-02T10:24:26;6.10;;;1.88;;
64795;SDS011;51229;51.980;6.722;2023-04-02T10:26:56;5.93;;;1.80;;
64795;SDS011;51229;51.980;6.722;2023-04-02T10:29:53;3.95;;;1.77;;
64795;SDS011;51229;51.980;6.722;2023-04-02T10:45:45;3.83;;;1.77;;
64795;SDS011;51229;51.980;6.722;2023-04-02T10:51:20;3.53;;;1.80;;
64795;SDS011;51229;51.980;6.722;2023-04-02T10:54:59;3.10;;;1.60;;
64795;SDS011;51229;51.980;6.722;2023-04-02T10:56:55;5.20;;;1.90;;
64795;SDS011;51229;51.980;6.722;2023-04-02T10:59:26;4.45;;;1.77;;
64795;SDS011;51229;51.980;6.722;2023-04-02T11:01:57;4.13;;;1.67;;
64795;SDS011;51229;51.980;6.722;2023-04-02T11:04:31;3.55;;;1.50;;
64795;SDS011;51229;51.980;6.722;2023-04-02T11:07:06;2.92;;;1.60;;
64795;SDS011;51229;51.980;6.722;2023-04-02T11:09:39;4.03;;;1.63;;
64795;SDS011;51229;51.980;6.722;2023-04-02T11:12:07;2.95;;;1.45;;
64795;SDS011;51229;51.980;6.722;2023-04-02T11:14:49;4.07;;;1.63;;
64795;SDS011;51229;51.980;6.722;2023-04-02T11:17:16;4.15;;;1.80;;
64795;SDS011;51229;51.980;6.722;2023-04-02T11:19:42;5.88;;;1.80;;
64795;SDS011;51229;51.980;6.722;2023-04-02T11:24:48;3.50;;;1.70;;
64795;SDS011;51229;51.980;6.722;2023-04-02T11:27:29;2.80;;;1.67;;
64795;SDS011;51229;51.980;6.722;2023-04-02T11:32:40;4.00;;;2.00;;
64795;SDS011;51229;51.980;6.722;2023-04-02T11:37:51;2.97;;;1.80;;
64795;SDS011;51229;51.980;6.722;2023-04-02T11:46:05;5.13;;;1.80;;
64795;SDS011;51229;51.980;6.722;2023-04-02T11:48:42;4.03;;;1.58;;
64795;SDS011;51229;51.980;6.722;2023-04-02T11:53:47;4.72;;;1.83;;
64795;SDS011;51229;51.980;6.722;2023-04-02T11:59:24;3.88;;;1.80;;
64795;SDS011;51229;51.980;6.722;2023-04-02T12:02:10;4.25;;;1.73;;
64795;SDS011;51229;51.980;6.722;2023-04-02T12:05:00;4.45;;;1.50;;
64795;SDS011;51229;51.980;6.722;2023-04-02T12:07:44;4.32;;;1.73;;
64795;SDS011;51229;51.980;6.722;2023-04-02T12:12:49;5.13;;;1.90;;
64795;SDS011;51229;51.980;6.722;2023-04-02T12:15:32;4.13;;;1.58;;
64795;SDS011;51229;51.980;6.722;2023-04-02T12:18:27;3.00;;;1.33;;
64795;SDS011;51229;51.980;6.722;2023-04-02T12:20:56;5.13;;;1.60;;
64795;SDS011;51229;51.980;6.722;2023-04-02T12:23:46;3.85;;;1.70;;
64795;SDS011;51229;51.980;6.722;2023-04-02T12:31:50;5.40;;;1.85;;
64795;SDS011;51229;51.980;6.722;2023-04-02T12:34:22;3.80;;;1.50;;
64795;SDS011;51229;51.980;6.722;2023-04-02T12:36:53;3.92;;;1.42;;
64795;SDS011;51229;51.980;6.722;2023-04-02T12:39:24;3.60;;;1.17;;
64795;SDS011;51229;51.980;6.722;2023-04-02T12:41:51;3.40;;;1.35;;
64795;SDS011;51229;51.980;6.722;2023-04-02T12:44:17;3.55;;;1.60;;
64795;SDS011;51229;51.980;6.722;2023-04-02T12:46:46;4.25;;;1.48;;
64795;SDS011;51229;51.980;6.722;2023-04-02T12:49:59;4.47;;;1.70;;
64795;SDS011;51229;51.980;6.722;2023-04-02T12:52:03;3.08;;;1.33;;
64795;SDS011;51229;51.980;6.722;2023-04-02T12:54:43;3.20;;;1.65;;
64795;SDS011;51229;51.980;6.722;2023-04-02T12:57:21;4.70;;;1.90;;
64795;SDS011;51229;51.980;6.722;2023-04-02T12:59:58;5.68;;;1.83;;
64795;SDS011;51229;51.980;6.722;2023-04-02T13:02:43;4.53;;;1.83;;
64795;SDS011;51229;51.980;6.722;2023-04-02T13:05:11;3.70;;;1.80;;
64795;SDS011;51229;51.980;6.722;2023-04-02T13:07:36;4.70;;;1.90;;
64795;SDS011;51229;51.980;6.722;2023-04-02T13:10:04;3.63;;;1.80;;
64795;SDS011;51229;51.980;6.722;2023-04-02T13:12:47;4.00;;;1.58;;
64795;SDS011;51229;51.980;6.722;2023-04-02T13:15:22;4.75;;;1.80;;
64795;SDS011;51229;51.980;6.722;2023-04-02T13:20:30;3.47;;;1.50;;
64795;SDS011;51229;51.980;6.722;2023-04-02T13:26:10;4.82;;;2.05;;
64795;SDS011;51229;51.980;6.722;2023-04-02T13:31:41;3.08;;;1.30;;
64795;SDS011;51229;51.980;6.722;2023-04-02T13:34:06;3.72;;;1.50;;
64795;SDS011;51229;51.980;6.722;2023-04-02T13:36:32;3.13;;;1.48;;
64795;SDS011;51229;51.980;6.722;2023-04-02T13:38:58;2.85;;;1.38;;
64795;SDS011;51229;51.980;6.722;2023-04-02T13:41:25;4.80;;;1.60;;
64795;SDS011;51229;51.980;6.722;2023-04-02T13:43:53;3.15;;;1.40;;
64795;SDS011;51229;51.980;6.722;2023-04-02T13:46:21;3.45;;;1.95;;
64795;SDS011;51229;51.980;6.722;2023-04-02T13:48:52;4.88;;;1.52;;
64795;SDS011;51229;51.980;6.722;2023-04-02T13:51:20;2.20;;;1.20;;
64795;SDS011;51229;51.980;6.722;2023-04-02T13:53:48;3.72;;;1.65;;
64795;SDS011;51229;51.980;6.722;2023-04-02T13:56:18;3.72;;;1.50;;
64795;SDS011;51229;51.980;6.722;2023-04-02T13:58:46;2.38;;;1.25;;
64795;SDS011;51229;51.980;6.722;2023-04-02T14:01:12;3.13;;;1.55;;
64795;SDS011;51229;51.980;6.722;2023-04-02T14:03:38;4.57;;;1.67;;
64795;SDS011;51229;51.980;6.722;2023-04-02T14:06:11;3.03;;;1.50;;
64795;SDS011;51229;51.980;6.722;2023-04-02T14:09:04;2.45;;;1.30;;
64795;SDS011;51229;51.980;6.722;2023-04-02T14:11:42;3.10;;;1.43;;
64795;SDS011;51229;51.980;6.722;2023-04-02T14:27:56;3.53;;;1.42;;
64795;SDS011;51229;51.980;6.722;2023-04-02T14:33:08;4.22;;;1.80;;
64795;SDS011;51229;51.980;6.722;2023-04-02T14:35:44;3.17;;;1.55;;
64795;SDS011;51229;51.980;6.722;2023-04-02T14:43:31;3.50;;;1.40;;
64795;SDS011;51229;51.980;6.722;2023-04-02T14:46:13;3.95;;;1.42;;
64795;SDS011;51229;51.980;6.722;2023-04-02T14:56:20;6.45;;;4.82;;
64795;SDS011;51229;51.980;6.722;2023-04-02T14:58:50;4.97;;;1.58;;
64795;SDS011;51229;51.980;6.722;2023-04-02T15:01:29;2.85;;;1.58;;
64795;SDS011;51229;51.980;6.722;2023-04-02T15:04:05;4.68;;;1.77;;
64795;SDS011;51229;51.980;6.722;2023-04-02T15:06:36;3.15;;;1.50;;
64795;SDS011;51229;51.980;6.722;2023-04-02T15:11:42;3.35;;;1.40;;
64795;SDS011;51229;51.980;6.722;2023-04-02T15:14:16;3.15;;;1.30;;
64795;SDS011;51229;51.980;6.722;2023-04-02T15:16:43;4.57;;;1.60;;
64795;SDS011;51229;51.980;6.722;2023-04-02T15:19:14;3.03;;;1.42;;
64795;SDS011;51229;51.980;6.722;2023-04-02T15:21:55;3.30;;;1.30;;
64795;SDS011;51229;51.980;6.722;2023-04-02T15:30:33;2.85;;;1.50;;
64795;SDS011;51229;51.980;6.722;2023-04-02T15:33:26;5.43;;;2.00;;
64795;SDS011;51229;51.980;6.722;2023-04-02T15:36:12;4.95;;;1.85;;
64795;SDS011;51229;51.980;6.722;2023-04-02T15:38:57;4.88;;;1.83;;
64795;SDS011;51229;51.980;6.722;2023-04-02T15:41:35;5.13;;;1.92;;
64795;SDS011;51229;51.980;6.722;2023-04-02T15:44:13;4.63;;;2.33;;
64795;SDS011;51229;51.980;6.722;2023-04-02T15:46:58;5.13;;;1.75;;
64795;SDS011;51229;51.980;6.722;2023-04-02T15:49:53;5.47;;;2.00;;
64795;SDS011;51229;51.980;6.722;2023-04-02T15:55:20;4.15;;;1.40;;
64795;SDS011;51229;51.980;6.722;2023-04-02T16:00:27;4.07;;;1.40;;
64795;SDS011;51229;51.980;6.722;2023-04-02T16:08:37;4.93;;;1.65;;
64795;SDS011;51229;51.980;6.722;2023-04-02T16:11:05;5.25;;;2.10;;
64795;SDS011;51229;51.980;6.722;2023-04-02T16:13:36;4.78;;;1.95;;
64795;SDS011;51229;51.980;6.722;2023-04-02T16:16:04;5.82;;;1.60;;
64795;SDS011;51229;51.980;6.722;2023-04-02T16:21:38;2.72;;;1.20;;
64795;SDS011;51229;51.980;6.722;2023-04-02T16:24:12;3.88;;;1.17;;
64795;SDS011;51229;51.980;6.722;2023-04-02T16:26:41;5.07;;;1.52;;
64795;SDS011;51229;51.980;6.722;2023-04-02T16:35:10;3.00;;;1.50;;
64795;SDS011;51229;51.980;6.722;2023-04-02T16:37:41;3.80;;;1.40;;
64795;SDS011;51229;51.980;6.722;2023-04-02T16:51:27;4.53;;;2.00;;
64795;SDS011;51229;51.980;6.722;2023-04-02T16:54:00;5.35;;;1.98;;
64795;SDS011;51229;51.980;6.722;2023-04-02T16:56:52;3.78;;;1.67;;
64795;SDS011;51229;51.980;6.722;2023-04-02T16:59:47;4.88;;;1.58;;
64795;SDS011;51229;51.980;6.722;2023-04-02T17:07:56;4.82;;;1.77;;
64795;SDS011;51229;51.980;6.722;2023-04-02T17:10:49;6.00;;;1.73;;
64795;SDS011;51229;51.980;6.722;2023-04-02T17:19:10;4.55;;;2.00;;
64795;SDS011;51229;51.980;6.722;2023-04-02T17:21:38;3.75;;;1.70;;
64795;SDS011;51229;51.980;6.722;2023-04-02T17:26:38;5.05;;;1.92;;
64795;SDS011;51229;51.980;6.722;2023-04-02T17:29:08;3.95;;;1.90;;
64795;SDS011;51229;51.980;6.722;2023-04-02T17:31:41;4.55;;;1.65;;
64795;SDS011;51229;51.980;6.722;2023-04-02T17:34:13;4.95;;;1.77;;
64795;SDS011;51229;51.980;6.722;2023-04-02T17:41:46;7.70;;;3.58;;
64795;SDS011;51229;51.980;6.722;2023-04-02T17:44:56;4.82;;;2.38;;
64795;SDS011;51229;51.980;6.722;2023-04-02T17:50:32;5.55;;;1.90;;
64795;SDS011;51229;51.980;6.722;2023-04-02T17:58:54;4.53;;;2.10;;
64795;SDS011;51229;51.980;6.722;2023-04-02T18:01:45;6.30;;;2.35;;
64795;SDS011;51229;51.980;6.722;2023-04-02T18:09:45;5.65;;;2.95;;
64795;SDS011;51229;51.980;6.722;2023-04-02T18:12:30;4.82;;;1.98;;
64795;SDS011;51229;51.980;6.722;2023-04-02T18:15:23;5.32;;;3.17;;
64795;SDS011;51229;51.980;6.722;2023-04-02T18:18:25;8.68;;;4.80;;
64795;SDS011;51229;51.980;6.722;2023-04-02T18:21:00;4.97;;;2.60;;
64795;SDS011;51229;51.980;6.722;2023-04-02T18:23:35;7.57;;;3.22;;
64795;SDS011;51229;51.980;6.722;2023-04-02T18:34:56;6.28;;;3.50;;
64795;SDS011;51229;51.980;6.722;2023-04-02T18:40:41;4.30;;;2.60;;
64795;SDS011;51229;51.980;6.722;2023-04-02T18:48:37;10.00;;;5.20;;
64795;SDS011;51229;51.980;6.722;2023-04-02T18:51:13;4.70;;;2.95;;
64795;SDS011;51229;51.980;6.722;2023-04-02T18:53:42;7.07;;;3.70;;
64795;SDS011;51229;51.980;6.722;2023-04-02T18:56:10;8.73;;;4.22;;
64795;SDS011;51229;51.980;6.722;2023-04-02T18:59:03;8.98;;;4.82;;
64795;SDS011;51229;51.980;6.722;2023-04-02T19:01:38;7.25;;;3.33;;
64795;SDS011;51229;51.980;6.722;2023-04-02T19:04:06;5.20;;;3.03;;
64795;SDS011;51229;51.980;6.722;2023-04-02T19:06:43;5.03;;;2.90;;
64795;SDS011;51229;51.980;6.722;2023-04-02T19:09:33;6.45;;;3.65;;
64795;SDS011;51229;51.980;6.722;2023-04-02T19:12:08;7.28;;;3.67;;
64795;SDS011;51229;51.980;6.722;2023-04-02T19:14:40;8.75;;;4.35;;
64795;SDS011;51229;51.980;6.722;2023-04-02T19:41:44;7.35;;;3.70;;
64795;SDS011;51229;51.980;6.722;2023-04-02T19:44:17;7.55;;;3.75;;
64795;SDS011;51229;51.980;6.722;2023-04-02T19:46:42;7.25;;;3.80;;
64795;SDS011;51229;51.980;6.722;2023-04-02T19:49:24;8.35;;;3.72;;
64795;SDS011;51229;51.980;6.722;2023-04-02T19:51:52;7.93;;;4.85;;
64795;SDS011;51229;51.980;6.722;2023-04-02T19:54:19;6.50;;;4.20;;
64795;SDS011;51229;51.980;6.722;2023-04-02T19:56:44;10.10;;;6.47;;
64795;SDS011;51229;51.980;6.722;2023-04-02T19:59:10;14.43;;;9.10;;
64795;SDS011;51229;51.980;6.722;2023-04-02T20:01:36;13.98;;;7.97;;
64795;SDS011;51229;51.980;6.722;2023-04-02T20:04:02;24.38;;;11.85;;
64795;SDS011;51229;51.980;6.722;2023-04-02T20:06:28;23.00;;;11.07;;
64795;SDS011;51229;51.980;6.722;2023-04-02T20:08:56;22.08;;;10.75;;
64795;SDS011;51229;51.980;6.722;2023-04-02T20:11:22;21.13;;;9.90;;
64795;SDS011;51229;51.980;6.722;2023-04-02T20:13:49;12.02;;;6.00;;